Shawnee, OK

12:46 PM CDT on September 02, 2014 (GMT -0500)
Shawnee Municipal | Change Station
CLOSE
Current Station
Airport
Location: Shawnee,
Elevation: 1073 ft
Nearby Weather Stations

Elev 1073 ft 35.36 °N, 96.94 °W | Updated 11 minutes ago

Thunderstorm
Thunderstorm
73 °F
Feels Like 73 °F
N
10
Wind Variable Wind from ESE

Today
High -- | Low -- °F
--% Chance of Precip.
Yesterday
High -- | Low -- °F
Precip. -- in
7:00 AM 7:53 PM
First Quarter, 53% visible
Pressure 30.07 in
Visibility 10.0 miles
Clouds Scattered Clouds 800 ft
Scattered Clouds 2200 ft
Overcast 3500 ft
Dew Point 73 °F
Humidity 100%
Rainfall 1.12 in
Snow Depth Not available.
UV 3 out of 12
Pollen 10.50 out of 12
Air Quality Not available.
Flu Activity Not available.
METAR KSNL 021735Z AUTO 11009KT 10SM TS SCT008 SCT022 OVC035 23/23 A3007 RMK AO2 LTG DSNT NW THRU NE

More Conditions Fewer Conditions

Pressure 30.07 in
Visibility 10.0 miles
Clouds Scattered Clouds 800 ft
Scattered Clouds 2200 ft
Overcast 3500 ft
Dew Point 73 °F
Humidity 100%
Rainfall 1.12 in
Snow Depth Not available.
UV 3 out of 12
Pollen 10.50 out of 12
Air Quality Not available.
Flu Activity Not available.
METAR KSNL 021735Z AUTO 11009KT 10SM TS SCT008 SCT022 OVC035 23/23 A3007 RMK AO2 LTG DSNT NW THRU NE

More Conditions Fewer Conditions

10-Day Weather Forecast

Almanac

Astronomy

Sep. 02, 2014 Rise Set
Actual Time 7:00 AM CDT 7:53 PM CDT
Civil Twilight 6:34 AM CDT 8:19 PM CDT
Nautical Twilight 6:04 AM CDT 8:49 PM CDT
Astronomical Twilight 5:32 AM CDT 9:21 PM CDT
Moon 2:30 PM CDT 12:11 AM CDT
Length of Visible Light 13h 44m
Length of Day
12h 52m
Tomorrow will be 2m 9s shorter.
First Quarter, 53% of the Moon is Illuminated
Today
First Quarter
Sep 8
Full
Sep 15
Last Quarter
Sep 24
New
Oct 1
First Quarter

Today's Extremes

State Highs State Lows

Community

WunderPhotos

Upload Photos

1,749,724 photos uploaded!

WunderBlogs® & News

Nearby

Snow Depth

Station Depth Elevation
No new snow has been reported.

Earthquake Activity

City Distance Mag. Time & Date
Helena, Oklahoma 114 miles 3.2 3:05 AM CDT
2014-09-02
Medford, Oklahoma 111 miles 3.3 11:58 PM CDT
2014-09-01
Perry, Oklahoma 66 miles 3.1 6:46 AM CDT
2014-09-01
Jones, Oklahoma 28 miles 3.1 1:49 PM CDT
2014-08-31
Minimum magnitude displayed is 2.5.

Coastal Water Temperatures

Place Temperature
No Stations Reporting

Nearby Weather Stations